createdAt,value
2023-02-27T00:01:29.261Z,97373.94
2023-02-27T00:03:31.047Z,97379.06
2023-02-27T00:05:33.125Z,97371.44
2023-02-27T00:07:35.137Z,97366.75
2023-02-27T00:09:38.327Z,97375.00
2023-02-27T00:11:40.699Z,97370.00
2023-02-27T00:13:46.566Z,97366.84
2023-02-27T00:15:51.704Z,97376.69
2023-02-27T00:17:53.877Z,97372.50
2023-02-27T00:19:55.473Z,97373.72
2023-02-27T00:21:57.348Z,97366.91
2023-02-27T00:23:59.203Z,97369.09
2023-02-27T00:26:01.585Z,97364.25
2023-02-27T00:28:04.626Z,97373.88
2023-02-27T00:30:10.818Z,97368.13
2023-02-27T00:32:12.949Z,97373.72
2023-02-27T00:34:18.588Z,97362.97
2023-02-27T00:36:20.493Z,97355.66
2023-02-27T00:38:22.680Z,97361.13
2023-02-27T00:40:25.577Z,97356.63
2023-02-27T00:42:28.980Z,97358.91
2023-02-27T00:44:30.951Z,97357.38
2023-02-27T00:46:35.796Z,97362.06
2023-02-27T00:48:37.732Z,97368.13
2023-02-27T00:50:40.437Z,97358.97
2023-02-27T00:52:42.404Z,97369.38
2023-02-27T00:54:44.383Z,97368.16
2023-02-27T00:56:46.063Z,97359.75
2023-02-27T00:58:47.797Z,97367.06
2023-02-27T01:00:49.658Z,97364.09
2023-02-27T01:02:51.718Z,97371.13
2023-02-27T01:04:53.764Z,97372.38
2023-02-27T01:06:55.583Z,97368.66
2023-02-27T01:09:00.702Z,97375.50
2023-02-27T01:11:02.548Z,97365.84
2023-02-27T01:13:07.396Z,97363.97
2023-02-27T01:15:12.870Z,97373.34
2023-02-27T01:17:14.746Z,97372.25
2023-02-27T01:19:16.561Z,97375.38
2023-02-27T01:21:18.878Z,97372.25
2023-02-27T01:23:21.931Z,97379.88
2023-02-27T01:25:24.840Z,97376.13
2023-02-27T01:27:27.127Z,97377.03
2023-02-27T01:29:28.830Z,97370.34
2023-02-27T01:31:30.777Z,97377.81
2023-02-27T01:33:32.656Z,97376.41
2023-02-27T01:35:36.026Z,97367.22
2023-02-27T01:37:37.802Z,97371.41
2023-02-27T01:39:39.507Z,97376.59
2023-02-27T01:41:41.585Z,97375.78
2023-02-27T01:44:03.173Z,97373.59
2023-02-27T01:46:05.436Z,97371.13
2023-02-27T01:48:18.291Z,97377.22
2023-02-27T01:50:20.808Z,97376.75
2023-02-27T01:52:23.553Z,97375.19
2023-02-27T01:54:27.263Z,97374.25
2023-02-27T01:56:31.168Z,97380.78
2023-02-27T01:58:34.322Z,97382.03
2023-02-27T02:00:37.475Z,97370.50
2023-02-27T02:02:47.669Z,97381.88
2023-02-27T02:04:51.996Z,97376.59
2023-02-27T02:07:00.157Z,97375.97
2023-02-27T02:09:03.664Z,97369.41
2023-02-27T02:11:07.628Z,97374.56
2023-02-27T02:13:10.133Z,97365.69
2023-02-27T02:15:13.367Z,97361.00
2023-02-27T02:17:44.159Z,97365.69
2023-02-27T02:20:22.107Z,97364.41
2023-02-27T02:22:30.206Z,97366.59
2023-02-27T02:25:04.429Z,97368.97
2023-02-27T02:27:29.307Z,97359.59
2023-02-27T02:29:52.821Z,97350.09
2023-02-27T02:32:14.184Z,97358.50
2023-02-27T02:34:58.823Z,97364.25
2023-02-27T02:37:48.428Z,97355.72
2023-02-27T02:40:16.394Z,97367.06
2023-02-27T02:42:27.602Z,97367.22
2023-02-27T02:44:41.511Z,97370.34
2023-02-27T02:46:50.074Z,97366.16
2023-02-27T02:49:10.889Z,97371.59
2023-02-27T02:51:18.665Z,97367.56
2023-02-27T02:53:48.317Z,97369.91
2023-02-27T02:55:57.450Z,97369.16
2023-02-27T02:58:16.733Z,97370.06
2023-02-27T03:00:22.980Z,97365.22
2023-02-27T03:02:33.429Z,97370.38
2023-02-27T03:05:14.564Z,97376.13
2023-02-27T03:07:54.283Z,97371.63
2023-02-27T03:10:13.932Z,97372.25
2023-02-27T03:12:22.533Z,97381.72
2023-02-27T03:14:32.716Z,97386.41
2023-02-27T03:16:44.896Z,97385.00
2023-02-27T03:18:59.053Z,97379.88
2023-02-27T03:21:15.118Z,97384.06
2023-02-27T03:23:23.260Z,97379.38
2023-02-27T03:25:27.040Z,97388.44
2023-02-27T03:27:37.632Z,97378.47
2023-02-27T03:29:45.743Z,97391.41
2023-02-27T03:31:56.829Z,97390.63
2023-02-27T03:34:13.179Z,97385.66
2023-02-27T03:36:45.819Z,97387.06
2023-02-27T03:39:02.742Z,97396.22
2023-02-27T03:41:10.052Z,97391.72
2023-02-27T03:43:37.092Z,97392.03
2023-02-27T03:45:50.373Z,97387.06
2023-02-27T03:47:54.660Z,97393.41
2023-02-27T03:49:56.669Z,97397.63
2023-02-27T03:51:58.204Z,97400.59
2023-02-27T03:54:11.576Z,97409.16
2023-02-27T03:56:18.904Z,97413.53
2023-02-27T03:58:20.762Z,97409.00
2023-02-27T04:00:24.933Z,97409.28
2023-02-27T04:02:27.378Z,97407.44
2023-02-27T04:04:31.865Z,97409.00
2023-02-27T04:07:16.300Z,97405.72
2023-02-27T04:09:34.027Z,97413.03
2023-02-27T04:12:03.137Z,97405.44
2023-02-27T04:14:32.273Z,97408.06
2023-02-27T04:16:53.621Z,97407.13
2023-02-27T04:19:33.098Z,97412.09
2023-02-27T04:21:52.136Z,97411.78
2023-02-27T04:24:16.981Z,97408.84
2023-02-27T04:26:31.854Z,97411.16
2023-02-27T04:28:54.976Z,97411.47
2023-02-27T04:31:08.538Z,97417.53
2023-02-27T04:33:24.426Z,97419.88
2023-02-27T04:35:32.726Z,97427.34
2023-02-27T04:37:49.199Z,97419.84
2023-02-27T04:40:00.544Z,97430.88
2023-02-27T04:42:06.558Z,97434.16
2023-02-27T04:44:10.885Z,97431.69
2023-02-27T04:46:17.069Z,97435.84
2023-02-27T04:48:24.329Z,97430.28
2023-02-27T04:50:32.109Z,97425.94
2023-02-27T04:52:39.901Z,97436.97
2023-02-27T04:54:54.644Z,97431.22
2023-02-27T04:57:02.262Z,97434.78
2023-02-27T04:59:16.900Z,97440.06
2023-02-27T05:01:24.133Z,97441.63
2023-02-27T05:03:32.076Z,97435.09
2023-02-27T05:05:36.782Z,97438.22
2023-02-27T05:07:45.108Z,97435.09
2023-02-27T05:09:55.217Z,97436.66
2023-02-27T05:12:03.990Z,97437.28
2023-02-27T05:14:18.166Z,97430.13
2023-02-27T05:16:26.987Z,97431.69
2023-02-27T05:18:28.663Z,97446.63
2023-02-27T05:20:42.856Z,97444.59
2023-02-27T05:22:56.625Z,97438.56
2023-02-27T05:25:23.526Z,97440.56
2023-02-27T05:27:47.205Z,97437.78
2023-02-27T05:29:53.777Z,97440.56
2023-02-27T05:32:20.831Z,97444.00
2023-02-27T05:34:36.129Z,97450.38
2023-02-27T05:36:44.120Z,97450.81
2023-02-27T05:38:53.524Z,97460.16
2023-02-27T05:41:09.385Z,97460.00
2023-02-27T05:43:18.930Z,97451.88
2023-02-27T05:45:25.082Z,97456.41
2023-02-27T05:47:31.907Z,97458.75
2023-02-27T05:49:51.211Z,97462.34
2023-02-27T05:51:57.132Z,97458.44
2023-02-27T05:54:17.931Z,97453.94
2023-02-27T05:56:23.812Z,97454.72
2023-02-27T05:58:45.648Z,97462.16
2023-02-27T06:00:57.244Z,97461.81
2023-02-27T06:02:59.030Z,97458.13
2023-02-27T06:05:00.843Z,97463.22
2023-02-27T06:07:06.439Z,97465.56
2023-02-27T06:09:09.729Z,97462.63
2023-02-27T06:11:13.550Z,97465.56
2023-02-27T06:13:17.194Z,97476.00
2023-02-27T06:15:19.520Z,97476.78
2023-02-27T06:17:21.584Z,97478.63
2023-02-27T06:19:23.154Z,97476.63
2023-02-27T06:21:24.928Z,97480.06
2023-02-27T06:23:26.423Z,97481.59
2023-02-27T06:25:28.313Z,97483.19
2023-02-27T06:27:30.193Z,97482.22
2023-02-27T06:29:32.032Z,97492.06
2023-02-27T06:31:33.885Z,97482.69
2023-02-27T06:33:35.739Z,97486.25
2023-02-27T06:35:37.337Z,97488.09
2023-02-27T06:37:38.971Z,97493.38
2023-02-27T06:39:40.475Z,97502.09
2023-02-27T06:41:42.403Z,97491.50
2023-02-27T06:43:44.125Z,97496.94
2023-02-27T06:45:45.615Z,97489.63
2023-02-27T06:47:47.699Z,97494.16
2023-02-27T06:49:49.357Z,97495.88
2023-02-27T06:51:50.924Z,97494.31
2023-02-27T06:53:52.637Z,97489.81
2023-02-27T06:55:54.745Z,97493.09
2023-02-27T06:57:56.587Z,97499.00
2023-02-27T06:59:58.072Z,97501.16
2023-02-27T07:02:00.484Z,97491.69
2023-02-27T07:04:02.084Z,97502.88
2023-02-27T07:06:04.189Z,97501.78
2023-02-27T07:08:06.694Z,97502.41
2023-02-27T07:10:11.718Z,97500.97
2023-02-27T07:12:13.342Z,97500.94
2023-02-27T07:14:16.589Z,97507.81
2023-02-27T07:16:18.132Z,97499.69
2023-02-27T07:18:20.026Z,97514.84
2023-02-27T07:20:21.723Z,97509.50
2023-02-27T07:22:23.404Z,97513.09
2023-02-27T07:24:25.535Z,97513.53
2023-02-27T07:26:27.224Z,97519.72
2023-02-27T07:28:28.932Z,97520.97
2023-02-27T07:30:30.941Z,97517.34
2023-02-27T07:32:32.713Z,97513.88
2023-02-27T07:34:34.824Z,97511.72
2023-02-27T07:36:36.508Z,97515.09
2023-02-27T07:38:38.006Z,97516.56
2023-02-27T07:40:39.521Z,97524.81
2023-02-27T07:42:41.103Z,97512.25
2023-02-27T07:44:42.697Z,97521.56
2023-02-27T07:46:44.870Z,97522.88
2023-02-27T07:48:47.165Z,97525.63
2023-02-27T07:50:48.920Z,97530.09
2023-02-27T07:52:54.136Z,97526.66
2023-02-27T07:54:55.727Z,97534.78
2023-02-27T07:56:57.212Z,97538.66
2023-02-27T07:58:58.720Z,97530.19
2023-02-27T08:01:00.225Z,97536.13
2023-02-27T08:03:01.806Z,97532.66
2023-02-27T08:05:04.209Z,97525.19
2023-02-27T08:07:05.783Z,97539.41
2023-02-27T08:09:07.455Z,97514.91
2023-02-27T08:11:09.563Z,97532.00
2023-02-27T08:13:11.164Z,97527.19
2023-02-27T08:15:12.741Z,97528.09
2023-02-27T08:17:14.760Z,97529.06
2023-02-27T08:19:16.432Z,97537.16
2023-02-27T08:21:17.940Z,97522.41
2023-02-27T08:23:19.415Z,97535.34
2023-02-27T08:25:21.426Z,97533.91
2023-02-27T08:27:22.966Z,97527.97
2023-02-27T08:29:24.762Z,97524.25
2023-02-27T08:31:26.492Z,97519.19
2023-02-27T08:33:28.012Z,97524.19
2023-02-27T08:35:29.813Z,97516.69
2023-02-27T08:37:31.857Z,97526.34
2023-02-27T08:39:33.612Z,97528.22
2023-02-27T08:41:35.830Z,97533.63
2023-02-27T08:43:37.591Z,97524.16
2023-02-27T08:45:39.110Z,97518.94
2023-02-27T08:47:41.161Z,97513.13
2023-02-27T08:49:42.908Z,97516.72
2023-02-27T08:51:44.418Z,97525.59
2023-02-27T08:53:46.125Z,97522.03
2023-02-27T08:55:51.736Z,97534.56
2023-02-27T08:57:53.194Z,97528.88
2023-02-27T08:59:55.212Z,97529.44
2023-02-27T09:01:56.789Z,97534.41
2023-02-27T09:03:58.486Z,97542.19
2023-02-27T09:06:00.014Z,97536.34
2023-02-27T09:08:02.577Z,97541.56
2023-02-27T09:10:07.079Z,97550.06
2023-02-27T09:12:09.090Z,97548.97
2023-02-27T09:14:11.124Z,97544.81
2023-02-27T09:16:13.538Z,97551.13
2023-02-27T09:18:15.807Z,97561.78
2023-02-27T09:20:17.465Z,97551.84
2023-02-27T09:22:19.762Z,97548.25
2023-02-27T09:24:22.318Z,97559.91
2023-02-27T09:26:39.745Z,97562.91
2023-02-27T09:28:43.839Z,97551.78
2023-02-27T09:30:45.705Z,97559.91
2023-02-27T09:32:47.397Z,97566.31
2023-02-27T09:34:48.915Z,97565.19
2023-02-27T09:36:50.917Z,97580.06
2023-02-27T09:38:52.497Z,97587.25
2023-02-27T09:40:56.755Z,97572.19
2023-02-27T09:43:03.240Z,97582.66
2023-02-27T09:45:08.438Z,97573.75
2023-02-27T09:47:50.735Z,97590.94
2023-02-27T09:50:06.303Z,97588.44
2023-02-27T09:52:13.468Z,97583.34
2023-02-27T09:54:15.688Z,97594.78
2023-02-27T09:56:23.903Z,97594.56
2023-02-27T09:58:47.288Z,97607.00
2023-02-27T10:00:53.633Z,97595.00
2023-02-27T10:03:09.601Z,97594.81
2023-02-27T10:05:26.981Z,97596.13
2023-02-27T10:07:49.257Z,97590.88
2023-02-27T10:10:12.841Z,97596.63
2023-02-27T10:12:27.707Z,97596.44
2023-02-27T10:14:41.490Z,97596.59
2023-02-27T10:16:43.398Z,97587.88
2023-02-27T10:18:58.003Z,97601.50
2023-02-27T10:21:21.890Z,97593.31
2023-02-27T10:23:36.117Z,97606.59
2023-02-27T10:25:49.778Z,97608.81
2023-02-27T10:27:58.406Z,97602.13
2023-02-27T10:30:28.327Z,97606.88
2023-02-27T10:32:33.160Z,97610.94
2023-02-27T10:34:37.035Z,97605.50
2023-02-27T10:36:40.938Z,97602.91
2023-02-27T10:38:49.336Z,97598.75
2023-02-27T10:40:51.157Z,97596.44
2023-02-27T10:42:54.961Z,97588.34
2023-02-27T10:44:56.780Z,97598.53
2023-02-27T10:46:58.340Z,97605.00
2023-02-27T10:49:01.652Z,97605.59
2023-02-27T10:51:21.667Z,97590.06
2023-02-27T10:53:26.433Z,97590.00
2023-02-27T10:55:34.116Z,97599.44
2023-02-27T10:57:42.872Z,97605.06
2023-02-27T10:59:50.495Z,97597.81
2023-02-27T11:01:58.600Z,97587.28
2023-02-27T11:04:00.239Z,97587.13
2023-02-27T11:06:08.055Z,97586.06
2023-02-27T11:08:23.363Z,97572.69
2023-02-27T11:10:28.892Z,97577.63
2023-02-27T11:12:34.535Z,97569.25
2023-02-27T11:14:47.133Z,97569.19
2023-02-27T11:16:51.566Z,97567.88
2023-02-27T11:18:54.351Z,97569.41
2023-02-27T11:21:20.391Z,97562.47
2023-02-27T11:23:32.561Z,97567.50
2023-02-27T11:25:34.218Z,97566.44
2023-02-27T11:27:36.080Z,97573.69
2023-02-27T11:29:37.812Z,97580.88
2023-02-27T11:31:40.049Z,97566.38
2023-02-27T11:33:51.503Z,97559.56
2023-02-27T11:35:57.053Z,97556.75
2023-02-27T11:38:03.897Z,97555.75
2023-02-27T11:40:14.378Z,97542.38
2023-02-27T11:42:21.046Z,97539.44
2023-02-27T11:44:49.845Z,97542.06
2023-02-27T11:46:50.064Z,97549.03
2023-02-27T11:49:13.520Z,97536.25
2023-02-27T11:51:29.374Z,97523.94
2023-02-27T11:53:48.943Z,97530.88
2023-02-27T11:55:54.559Z,97528.59
2023-02-27T11:58:04.631Z,97533.28
2023-02-27T12:00:25.764Z,97536.28
2023-02-27T12:02:52.501Z,97534.41
2023-02-27T12:04:54.003Z,97533.28
2023-02-27T12:07:03.737Z,97531.69
2023-02-27T12:09:19.121Z,97537.44
2023-02-27T12:11:20.599Z,97520.38
2023-02-27T12:13:27.564Z,97533.50
2023-02-27T12:15:37.943Z,97533.97
2023-02-27T12:17:45.779Z,97535.25
2023-02-27T12:20:21.585Z,97530.41
2023-02-27T12:22:29.613Z,97522.31
2023-02-27T12:24:40.956Z,97521.47
2023-02-27T12:26:45.887Z,97516.91
2023-02-27T12:29:15.696Z,97518.25
2023-02-27T12:31:35.331Z,97501.22
2023-02-27T12:34:03.901Z,97520.94
2023-02-27T12:36:11.521Z,97530.53
2023-02-27T12:38:15.260Z,97524.81
2023-02-27T12:40:19.801Z,97515.16
2023-02-27T12:42:36.317Z,97525.13
2023-02-27T12:45:02.557Z,97522.09
2023-02-27T12:47:12.680Z,97515.16
2023-02-27T12:49:19.731Z,97527.88
2023-02-27T12:51:44.376Z,97533.91
2023-02-27T12:54:04.183Z,97542.44
2023-02-27T12:56:22.155Z,97537.03
2023-02-27T12:58:42.420Z,97534.47
2023-02-27T13:00:53.551Z,97528.41
2023-02-27T13:03:37.730Z,97532.19
2023-02-27T13:06:01.650Z,97524.91
2023-02-27T13:08:24.252Z,97519.66
2023-02-27T13:10:36.544Z,97531.72
2023-02-27T13:12:47.003Z,97521.03
2023-02-27T13:14:55.055Z,97511.59
2023-02-27T13:17:28.991Z,97516.75
2023-02-27T13:19:34.248Z,97532.25
2023-02-27T13:21:51.803Z,97522.56
2023-02-27T13:24:01.925Z,97526.22
2023-02-27T13:26:14.331Z,97517.69
2023-02-27T13:28:25.125Z,97521.97
2023-02-27T13:30:33.405Z,97516.59
2023-02-27T13:32:54.058Z,97518.69
2023-02-27T13:35:06.181Z,97510.41
2023-02-27T13:37:09.366Z,97514.16
2023-02-27T13:39:43.975Z,97512.53
2023-02-27T13:41:58.060Z,97514.84
2023-02-27T13:44:20.417Z,97519.38
2023-02-27T13:46:33.228Z,97513.16
2023-02-27T13:48:42.852Z,97509.88
2023-02-27T13:50:44.290Z,97509.75
2023-02-27T13:52:47.010Z,97512.25
2023-02-27T13:54:48.710Z,97505.44
2023-02-27T13:56:59.111Z,97519.34
2023-02-27T13:59:32.074Z,97509.75
2023-02-27T14:01:34.877Z,97509.34
2023-02-27T14:03:37.238Z,97507.13
2023-02-27T14:05:42.869Z,97515.28
2023-02-27T14:07:54.451Z,97536.19
2023-02-27T14:10:11.367Z,97519.44
2023-02-27T14:12:45.699Z,97518.94
2023-02-27T14:14:50.340Z,97526.56
2023-02-27T14:16:52.014Z,97523.19
2023-02-27T14:18:58.913Z,97519.44
2023-02-27T14:21:00.416Z,97518.50
2023-02-27T14:23:17.306Z,97517.94
2023-02-27T14:25:26.111Z,97514.69
2023-02-27T14:27:30.246Z,97527.25
2023-02-27T14:29:34.838Z,97520.81
2023-02-27T14:31:40.532Z,97528.13
2023-02-27T14:33:48.437Z,97509.69
2023-02-27T14:36:02.719Z,97518.56
2023-02-27T14:38:10.828Z,97515.09
2023-02-27T14:40:31.386Z,97525.28
2023-02-27T14:42:33.071Z,97518.28
2023-02-27T14:44:42.982Z,97524.09
2023-02-27T14:46:45.907Z,97523.53
2023-02-27T14:48:52.183Z,97525.97
2023-02-27T14:51:02.827Z,97524.84
2023-02-27T14:53:27.473Z,97525.94
2023-02-27T14:55:37.671Z,97541.59
2023-02-27T14:57:40.030Z,97526.31
2023-02-27T14:59:42.876Z,97528.78
2023-02-27T15:01:44.443Z,97538.50
2023-02-27T15:03:53.213Z,97536.63
2023-02-27T15:06:13.136Z,97535.56
2023-02-27T15:08:19.454Z,97532.97
2023-02-27T15:10:33.325Z,97542.19
2023-02-27T15:12:39.639Z,97535.88
2023-02-27T15:14:41.998Z,97535.41
2023-02-27T15:16:45.244Z,97536.75
2023-02-27T15:18:50.690Z,97530.69
2023-02-27T15:20:59.178Z,97532.59
2023-02-27T15:23:19.925Z,97523.53
2023-02-27T15:25:35.372Z,97528.38
2023-02-27T15:27:37.604Z,97521.69
2023-02-27T15:29:42.752Z,97529.00
2023-02-27T15:31:46.301Z,97527.91
2023-02-27T15:33:49.417Z,97529.88
2023-02-27T15:35:54.226Z,97528.13
2023-02-27T15:37:58.629Z,97539.06
2023-02-27T15:40:01.376Z,97537.69
2023-02-27T15:42:26.288Z,97535.91
2023-02-27T15:44:47.844Z,97526.19
2023-02-27T15:46:51.401Z,97538.94
2023-02-27T15:48:54.609Z,97538.16
2023-02-27T15:51:03.696Z,97542.66
2023-02-27T15:53:08.408Z,97550.06
2023-02-27T15:55:14.855Z,97555.16
2023-02-27T15:57:16.513Z,97553.22
2023-02-27T15:59:19.567Z,97558.06
2023-02-27T16:01:23.451Z,97562.31
2023-02-27T16:03:49.856Z,97559.50
2023-02-27T16:05:53.516Z,97561.63
2023-02-27T16:08:18.281Z,97557.69
2023-02-27T16:10:23.909Z,97559.91
2023-02-27T16:12:37.760Z,97568.19
2023-02-27T16:14:45.110Z,97567.22
2023-02-27T16:16:56.470Z,97565.69
2023-02-27T16:19:02.614Z,97579.09
2023-02-27T16:21:19.380Z,97577.31
2023-02-27T16:23:25.129Z,97574.72
2023-02-27T16:25:27.024Z,97581.47
2023-02-27T16:27:30.154Z,97579.63
2023-02-27T16:29:36.628Z,97578.59
2023-02-27T16:31:46.966Z,97583.06
2023-02-27T16:33:48.719Z,97588.25
2023-02-27T16:35:51.027Z,97589.00
2023-02-27T16:38:00.956Z,97587.13
2023-02-27T16:40:12.632Z,97588.97
2023-02-27T16:42:14.270Z,97593.19
2023-02-27T16:44:18.062Z,97590.19
2023-02-27T16:46:20.482Z,97588.50
2023-02-27T16:48:22.481Z,97605.28
2023-02-27T16:50:41.418Z,97604.69
2023-02-27T16:52:43.638Z,97602.81
2023-02-27T16:54:45.729Z,97602.84
2023-02-27T16:56:50.655Z,97613.38
2023-02-27T16:59:28.424Z,97598.50
2023-02-27T17:01:32.334Z,97612.84
2023-02-27T17:03:35.458Z,97611.25
2023-02-27T17:05:37.085Z,97611.16
2023-02-27T17:07:38.872Z,97615.59
2023-02-27T17:09:41.709Z,97609.06
2023-02-27T17:11:43.240Z,97617.94
2023-02-27T17:13:44.859Z,97613.25
2023-02-27T17:15:46.870Z,97617.94
2023-02-27T17:17:48.811Z,97617.47
2023-02-27T17:19:51.280Z,97617.16
2023-02-27T17:21:52.772Z,97615.72
2023-02-27T17:23:57.328Z,97620.59
2023-02-27T17:25:59.252Z,97612.59
2023-02-27T17:28:00.945Z,97620.00
2023-02-27T17:30:02.853Z,97615.81
2023-02-27T17:32:05.290Z,97626.00
2023-02-27T17:34:25.105Z,97619.69
2023-02-27T17:36:29.899Z,97617.00
2023-02-27T17:38:32.914Z,97629.53
2023-02-27T17:40:37.236Z,97637.41
2023-02-27T17:42:39.750Z,97631.41
2023-02-27T17:44:42.522Z,97628.31
2023-02-27T17:46:45.138Z,97622.28
2023-02-27T17:49:07.212Z,97624.28
2023-02-27T17:51:12.411Z,97618.28
2023-02-27T17:53:15.515Z,97629.19
2023-02-27T17:55:17.297Z,97621.13
2023-02-27T17:57:18.862Z,97638.69
2023-02-27T17:59:23.110Z,97635.56
2023-02-27T18:01:25.913Z,97641.75
2023-02-27T18:03:27.772Z,97642.00
2023-02-27T18:05:29.423Z,97653.03
2023-02-27T18:07:31.554Z,97648.03
2023-02-27T18:09:33.819Z,97648.97
2023-02-27T18:11:53.713Z,97660.38
2023-02-27T18:13:58.532Z,97653.81
2023-02-27T18:16:00.630Z,97651.41
2023-02-27T18:18:02.538Z,97648.50
2023-02-27T18:20:05.226Z,97661.63
2023-02-27T18:22:07.332Z,97652.59
2023-02-27T18:24:17.605Z,97650.19
2023-02-27T18:26:31.260Z,97647.47
2023-02-27T18:28:33.131Z,97637.94
2023-02-27T18:30:38.389Z,97641.38
2023-02-27T18:32:49.118Z,97648.25
2023-02-27T18:34:50.992Z,97650.41
2023-02-27T18:36:53.162Z,97650.72
2023-02-27T18:38:55.021Z,97655.72
2023-02-27T18:40:57.138Z,97647.91
2023-02-27T18:42:59.053Z,97643.25
2023-02-27T18:45:00.996Z,97649.22
2023-02-27T18:47:02.571Z,97650.31
2023-02-27T18:49:22.935Z,97645.97
2023-02-27T18:51:24.852Z,97647.25
2023-02-27T18:53:26.420Z,97648.06
2023-02-27T18:55:28.083Z,97650.72
2023-02-27T18:57:29.653Z,97650.13
2023-02-27T18:59:31.258Z,97643.69
2023-02-27T19:01:51.398Z,97652.25
2023-02-27T19:04:07.659Z,97657.09
2023-02-27T19:06:09.295Z,97644.34
2023-02-27T19:08:11.513Z,97645.56
2023-02-27T19:10:15.034Z,97648.16
2023-02-27T19:12:17.302Z,97659.56
2023-02-27T19:14:18.999Z,97650.34
2023-02-27T19:16:30.991Z,97659.28
2023-02-27T19:18:38.930Z,97657.72
2023-02-27T19:20:40.544Z,97656.56
2023-02-27T19:22:42.543Z,97663.81
2023-02-27T19:24:45.529Z,97654.63
2023-02-27T19:26:47.742Z,97656.69
2023-02-27T19:28:56.178Z,97653.06
2023-02-27T19:30:58.228Z,97642.91
2023-02-27T19:33:00.129Z,97647.31
2023-02-27T19:35:01.795Z,97646.09
2023-02-27T19:37:03.443Z,97658.91
2023-02-27T19:39:05.060Z,97652.50
2023-02-27T19:41:12.196Z,97650.81
2023-02-27T19:43:15.221Z,97655.00
2023-02-27T19:45:16.995Z,97649.56
2023-02-27T19:47:19.289Z,97656.13
2023-02-27T19:49:21.199Z,97647.97
2023-02-27T19:51:23.894Z,97652.63
2023-02-27T19:53:26.342Z,97658.88
2023-02-27T19:55:47.134Z,97656.72
2023-02-27T19:57:48.746Z,97655.81
2023-02-27T19:59:56.490Z,97658.16
2023-02-27T20:02:03.824Z,97661.28
2023-02-27T20:04:07.041Z,97655.50
2023-02-27T20:06:16.675Z,97655.56
2023-02-27T20:08:33.161Z,97660.25
2023-02-27T20:10:34.914Z,97665.44
2023-02-27T20:12:36.526Z,97668.84
2023-02-27T20:14:38.108Z,97666.38
2023-02-27T20:16:40.822Z,97667.16
2023-02-27T20:18:43.213Z,97675.28
2023-02-27T20:20:45.317Z,97674.03
2023-02-27T20:22:47.184Z,97674.84
2023-02-27T20:24:51.816Z,97675.78
2023-02-27T20:26:54.097Z,97667.53
2023-02-27T20:28:58.617Z,97679.88
2023-02-27T20:31:00.466Z,97676.28
2023-02-27T20:33:20.676Z,97678.13
2023-02-27T20:35:38.795Z,97683.41
2023-02-27T20:37:40.474Z,97678.28
2023-02-27T20:39:45.214Z,97673.94
2023-02-27T20:41:48.012Z,97683.75
2023-02-27T20:43:49.935Z,97682.84
2023-02-27T20:45:51.856Z,97682.22
2023-02-27T20:47:53.805Z,97680.00
2023-02-27T20:50:14.253Z,97687.81
2023-02-27T20:52:15.908Z,97687.81
2023-02-27T20:54:22.426Z,97679.81
2023-02-27T20:56:26.730Z,97679.84
2023-02-27T20:58:28.289Z,97676.09
2023-02-27T21:00:29.956Z,97677.66
2023-02-27T21:02:31.486Z,97672.84
2023-02-27T21:04:47.034Z,97683.34
2023-02-27T21:06:49.205Z,97669.75
2023-02-27T21:08:53.821Z,97672.84
2023-02-27T21:10:55.875Z,97673.47
2023-02-27T21:12:58.655Z,97667.53
2023-02-27T21:15:00.417Z,97672.03
2023-02-27T21:17:02.411Z,97678.47
2023-02-27T21:19:04.546Z,97679.56
2023-02-27T21:21:09.809Z,97673.19
2023-02-27T21:23:11.515Z,97675.19
2023-02-27T21:25:13.698Z,97670.22
2023-02-27T21:27:19.584Z,97677.41
2023-02-27T21:29:39.737Z,97674.28
2023-02-27T21:31:45.492Z,97676.13
2023-02-27T21:33:51.529Z,97660.84
2023-02-27T21:35:53.073Z,97662.25
2023-02-27T21:37:55.107Z,97660.69
2023-02-27T21:39:57.127Z,97657.13
2023-02-27T21:41:59.824Z,97658.84
2023-02-27T21:44:04.404Z,97653.84
2023-02-27T21:46:07.992Z,97653.06
2023-02-27T21:48:09.491Z,97654.63
2023-02-27T21:50:23.170Z,97650.72
2023-02-27T21:52:24.730Z,97653.69
2023-02-27T21:54:41.332Z,97638.06
2023-02-27T21:56:52.207Z,97645.41
2023-02-27T21:58:54.308Z,97636.66
2023-02-27T22:00:55.893Z,97639.59
2023-02-27T22:02:58.151Z,97638.56
2023-02-27T22:05:00.386Z,97640.56
2023-02-27T22:07:13.991Z,97644.00
2023-02-27T22:09:16.304Z,97641.69
2023-02-27T22:11:18.391Z,97642.78
2023-02-27T22:13:20.572Z,97642.47
2023-02-27T22:15:23.408Z,97641.53
2023-02-27T22:17:25.229Z,97638.88
2023-02-27T22:19:26.692Z,97645.91
2023-02-27T22:21:28.894Z,97634.19
2023-02-27T22:23:30.882Z,97631.72
2023-02-27T22:25:32.454Z,97642.16
2023-02-27T22:27:34.266Z,97641.03
2023-02-27T22:29:38.042Z,97639.50
2023-02-27T22:31:39.739Z,97648.56
2023-02-27T22:33:45.630Z,97640.41
2023-02-27T22:35:47.189Z,97641.72
2023-02-27T22:38:07.706Z,97640.47
2023-02-27T22:40:10.356Z,97638.44
2023-02-27T22:42:11.928Z,97642.66
2023-02-27T22:44:31.978Z,97638.44
2023-02-27T22:46:37.329Z,97640.13
2023-02-27T22:48:39.172Z,97647.56
2023-02-27T22:50:40.780Z,97639.34
2023-02-27T22:53:00.685Z,97646.03
2023-02-27T22:55:02.438Z,97641.41
2023-02-27T22:57:10.284Z,97638.88
2023-02-27T22:59:11.889Z,97638.44
2023-02-27T23:01:22.299Z,97645.44
2023-02-27T23:03:24.072Z,97639.34
2023-02-27T23:05:25.670Z,97631.72
2023-02-27T23:07:47.069Z,97641.09
2023-02-27T23:10:09.535Z,97635.31
2023-02-27T23:12:11.188Z,97636.09
2023-02-27T23:14:14.005Z,97643.13
2023-02-27T23:16:17.582Z,97637.47
2023-02-27T23:18:19.436Z,97640.44
2023-02-27T23:20:20.961Z,97636.41
2023-02-27T23:22:23.303Z,97632.97
2023-02-27T23:24:25.186Z,97638.28
2023-02-27T23:26:28.341Z,97636.91
2023-02-27T23:28:30.544Z,97643.91
2023-02-27T23:30:34.768Z,97641.91
2023-02-27T23:32:44.323Z,97642.19
2023-02-27T23:34:49.559Z,97646.72
2023-02-27T23:36:51.594Z,97649.19
2023-02-27T23:38:53.313Z,97642.34
2023-02-27T23:40:55.326Z,97643.44
2023-02-27T23:43:15.461Z,97643.13
2023-02-27T23:45:23.373Z,97644.81
2023-02-27T23:47:44.061Z,97637.66
2023-02-27T23:49:45.669Z,97636.41
2023-02-27T23:51:47.325Z,97639.25
2023-02-27T23:53:48.803Z,97634.88
2023-02-27T23:56:29.907Z,97643.44
2023-02-27T23:58:31.491Z,97641.91
